Terminal Aerodrome Forecast
Issued by NWS

Home | Current Version | Previous Version | Text Only | Print | Product List | Glossary Off
Versions: 1 2 3 4 5 6 7 8 9 10 11 12 13

000
FTUS45 KGGW 221121
TAFGDV
TAF
KGDV 221121Z 2212/2312 06013KT P6SM VCSH OVC015
     FM221400 07013KT P6SM -RA OVC020
     FM221800 09016G26KT P6SM VCSH OVC045
     FM230300 10016G24KT P6SM -RA OVC025=

USA.gov is the U.S. government's official web portal to all federal, state and local government web resources and services.